sensor_id;sensor_type;location;lat;lon;timestamp;pressure;altitude;pressure_sealevel;temperature;humidity
79230;BME280;68663;49.122;17.544;2023-12-28T00:02:12;99819.59;;;24.51;48.74
79230;BME280;68663;49.122;17.544;2023-12-28T00:04:38;99819.22;;;24.49;49.49
79230;BME280;68663;49.122;17.544;2023-12-28T00:07:04;99816.41;;;24.49;49.15
79230;BME280;68663;49.122;17.544;2023-12-28T00:09:29;99817.63;;;24.48;49.57
79230;BME280;68663;49.122;17.544;2023-12-28T00:11:55;99818.44;;;24.48;49.56
79230;BME280;68663;49.122;17.544;2023-12-28T00:14:20;99823.66;;;24.50;49.30
79230;BME280;68663;49.122;17.544;2023-12-28T00:16:46;99819.19;;;24.52;49.14
79230;BME280;68663;49.122;17.544;2023-12-28T00:19:11;99810.28;;;24.54;49.31
79230;BME280;68663;49.122;17.544;2023-12-28T00:21:37;99809.53;;;24.50;49.46
79230;BME280;68663;49.122;17.544;2023-12-28T00:24:02;99813.63;;;24.45;49.51
79230;BME280;68663;49.122;17.544;2023-12-28T00:26:28;99812.00;;;24.44;49.21
79230;BME280;68663;49.122;17.544;2023-12-28T00:28:54;99810.84;;;24.41;49.47
79230;BME280;68663;49.122;17.544;2023-12-28T00:31:19;99808.00;;;24.41;49.49
79230;BME280;68663;49.122;17.544;2023-12-28T00:33:44;99804.81;;;24.39;49.56
79230;BME280;68663;49.122;17.544;2023-12-28T00:36:10;99803.19;;;24.38;49.56
79230;BME280;68663;49.122;17.544;2023-12-28T00:38:35;99795.09;;;24.40;49.61
79230;BME280;68663;49.122;17.544;2023-12-28T00:41:01;99799.53;;;24.41;49.16
79230;BME280;68663;49.122;17.544;2023-12-28T00:43:26;99791.91;;;24.38;49.29
79230;BME280;68663;49.122;17.544;2023-12-28T00:45:51;99803.25;;;24.35;49.74
79230;BME280;68663;49.122;17.544;2023-12-28T00:48:17;99804.88;;;24.32;49.32
79230;BME280;68663;49.122;17.544;2023-12-28T00:50:42;99805.69;;;24.33;49.28
79230;BME280;68663;49.122;17.544;2023-12-28T00:53:08;99806.09;;;24.31;49.06
79230;BME280;68663;49.122;17.544;2023-12-28T00:55:33;99802.91;;;24.29;49.21
79230;BME280;68663;49.122;17.544;2023-12-28T00:57:58;99808.56;;;24.29;49.50
79230;BME280;68663;49.122;17.544;2023-12-28T01:00:24;99812.97;;;24.30;49.30
79230;BME280;68663;49.122;17.544;2023-12-28T01:02:49;99803.28;;;24.31;49.15
79230;BME280;68663;49.122;17.544;2023-12-28T01:05:16;99800.47;;;24.31;49.38
79230;BME280;68663;49.122;17.544;2023-12-28T01:07:42;99812.97;;;24.30;49.30
79230;BME280;68663;49.122;17.544;2023-12-28T01:10:07;99807.34;;;24.27;49.13
79230;BME280;68663;49.122;17.544;2023-12-28T01:12:33;99803.31;;;24.24;49.17
79230;BME280;68663;49.122;17.544;2023-12-28T01:14:58;99808.94;;;24.24;49.01
79230;BME280;68663;49.122;17.544;2023-12-28T01:17:24;99806.13;;;24.24;49.14
79230;BME280;68663;49.122;17.544;2023-12-28T01:19:49;99802.91;;;24.22;49.19
79230;BME280;68663;49.122;17.544;2023-12-28T01:22:15;99803.72;;;24.23;49.33
79230;BME280;68663;49.122;17.544;2023-12-28T01:24:40;99792.00;;;24.24;49.12
79230;BME280;68663;49.122;17.544;2023-12-28T01:27:06;99789.56;;;24.26;48.85
79230;BME280;68663;49.122;17.544;2023-12-28T01:29:31;99784.31;;;24.25;49.22
79230;BME280;68663;49.122;17.544;2023-12-28T01:31:58;99787.16;;;24.25;49.06
79230;BME280;68663;49.122;17.544;2023-12-28T01:34:23;99775.84;;;24.25;49.02
79230;BME280;68663;49.122;17.544;2023-12-28T01:36:48;99763.75;;;24.24;49.02
79230;BME280;68663;49.122;17.544;2023-12-28T01:39:14;99769.41;;;24.24;48.87
79230;BME280;68663;49.122;17.544;2023-12-28T01:41:41;99768.97;;;24.26;48.92
79230;BME280;68663;49.122;17.544;2023-12-28T01:44:06;99765.34;;;24.25;49.05
79230;BME280;68663;49.122;17.544;2023-12-28T01:46:33;99765.34;;;24.25;48.64
79230;BME280;68663;49.122;17.544;2023-12-28T01:48:59;99763.38;;;24.22;48.98
79230;BME280;68663;49.122;17.544;2023-12-28T01:51:26;99772.69;;;24.19;48.83
79230;BME280;68663;49.122;17.544;2023-12-28T01:53:52;99769.84;;;24.19;49.16
79230;BME280;68663;49.122;17.544;2023-12-28T01:56:19;99763.81;;;24.17;49.03
79230;BME280;68663;49.122;17.544;2023-12-28T01:58:46;99757.00;;;24.14;48.85
79230;BME280;68663;49.122;17.544;2023-12-28T02:01:14;99751.78;;;24.13;49.35
79230;BME280;68663;49.122;17.544;2023-12-28T02:03:39;99751.34;;;24.14;49.04
79230;BME280;68663;49.122;17.544;2023-12-28T02:06:07;99752.53;;;24.17;48.76
79230;BME280;68663;49.122;17.544;2023-12-28T02:08:32;99737.59;;;24.17;48.96
79230;BME280;68663;49.122;17.544;2023-12-28T02:10:58;99731.53;;;24.18;48.64
79230;BME280;68663;49.122;17.544;2023-12-28T02:13:24;99733.97;;;24.16;48.95
79230;BME280;68663;49.122;17.544;2023-12-28T02:15:58;99725.88;;;24.18;48.73
79230;BME280;68663;49.122;17.544;2023-12-28T02:18:31;99725.88;;;24.18;48.78
79230;BME280;68663;49.122;17.544;2023-12-28T02:21:00;99714.56;;;24.18;49.01
79230;BME280;68663;49.122;17.544;2023-12-28T02:23:27;99715.38;;;24.19;48.91
79230;BME280;68663;49.122;17.544;2023-12-28T02:25:52;99724.66;;;24.19;48.88
79230;BME280;68663;49.122;17.544;2023-12-28T02:28:18;99725.03;;;24.21;48.65
79230;BME280;68663;49.122;17.544;2023-12-28T02:30:43;99721.41;;;24.21;48.68
79230;BME280;68663;49.122;17.544;2023-12-28T02:36:01;99722.66;;;24.16;48.67
79230;BME280;68663;49.122;17.544;2023-12-28T02:38:29;99728.31;;;24.16;48.72
79230;BME280;68663;49.122;17.544;2023-12-28T02:40:56;99732.38;;;24.15;48.80
79230;BME280;68663;49.122;17.544;2023-12-28T02:43:22;99736.81;;;24.16;48.64
79230;BME280;68663;49.122;17.544;2023-12-28T02:45:47;99739.63;;;24.16;48.56
79230;BME280;68663;49.122;17.544;2023-12-28T02:48:13;99724.28;;;24.17;48.77
79230;BME280;68663;49.122;17.544;2023-12-28T02:50:38;99721.81;;;24.19;48.79
79230;BME280;68663;49.122;17.544;2023-12-28T02:53:04;99726.25;;;24.20;48.51
79230;BME280;68663;49.122;17.544;2023-12-28T02:55:29;99724.69;;;24.15;48.82
79230;BME280;68663;49.122;17.544;2023-12-28T02:57:56;99723.53;;;24.13;48.87
79230;BME280;68663;49.122;17.544;2023-12-28T03:00:25;99735.66;;;24.10;48.65
79230;BME280;68663;49.122;17.544;2023-12-28T03:02:50;99725.97;;;24.11;48.56
79230;BME280;68663;49.122;17.544;2023-12-28T03:05:16;99728.41;;;24.09;48.43
79230;BME280;68663;49.122;17.544;2023-12-28T03:07:42;99722.75;;;24.09;48.64
79230;BME280;68663;49.122;17.544;2023-12-28T03:10:08;99721.91;;;24.12;48.48
79230;BME280;68663;49.122;17.544;2023-12-28T03:12:34;99710.63;;;24.12;48.66
79230;BME280;68663;49.122;17.544;2023-12-28T03:14:59;99726.34;;;24.13;48.65
79230;BME280;68663;49.122;17.544;2023-12-28T03:17:25;99727.56;;;24.12;48.42
79230;BME280;68663;49.122;17.544;2023-12-28T03:19:51;99723.56;;;24.09;48.82
79230;BME280;68663;49.122;17.544;2023-12-28T03:22:16;99725.19;;;24.07;48.55
79230;BME280;68663;49.122;17.544;2023-12-28T03:24:42;99723.59;;;24.06;48.68
79230;BME280;68663;49.122;17.544;2023-12-28T03:27:08;99715.56;;;24.04;48.46
79230;BME280;68663;49.122;17.544;2023-12-28T03:29:34;99722.41;;;24.03;48.78
79230;BME280;68663;49.122;17.544;2023-12-28T03:31:59;99712.75;;;24.01;48.57
79230;BME280;68663;49.122;17.544;2023-12-28T03:34:25;99717.56;;;24.04;48.83
79230;BME280;68663;49.122;17.544;2023-12-28T03:36:56;99723.59;;;24.06;48.60
79230;BME280;68663;49.122;17.544;2023-12-28T03:39:22;99730.84;;;24.07;48.53
79230;BME280;68663;49.122;17.544;2023-12-28T03:41:48;99725.19;;;24.07;48.59
79230;BME280;68663;49.122;17.544;2023-12-28T03:44:14;99718.75;;;24.06;48.53
79230;BME280;68663;49.122;17.544;2023-12-28T03:46:39;99718.75;;;24.06;48.44
79230;BME280;68663;49.122;17.544;2023-12-28T03:49:04;99708.25;;;24.07;48.38
79230;BME280;68663;49.122;17.544;2023-12-28T03:51:30;99721.16;;;24.08;48.29
79230;BME280;68663;49.122;17.544;2023-12-28T03:53:55;99725.19;;;24.07;48.32
79230;BME280;68663;49.122;17.544;2023-12-28T03:56:22;99732.47;;;24.08;48.60
79230;BME280;68663;49.122;17.544;2023-12-28T03:58:48;99741.34;;;24.06;48.42
79230;BME280;68663;49.122;17.544;2023-12-28T04:01:13;99740.16;;;24.04;48.40
79230;BME280;68663;49.122;17.544;2023-12-28T04:03:39;99739.78;;;24.02;48.54
79230;BME280;68663;49.122;17.544;2023-12-28T04:06:05;99743.41;;;24.02;48.46
79230;BME280;68663;49.122;17.544;2023-12-28T04:08:30;99736.97;;;24.02;48.63
79230;BME280;68663;49.122;17.544;2023-12-28T04:10:56;99743.03;;;24.00;48.60
79230;BME280;68663;49.122;17.544;2023-12-28T04:13:21;99748.25;;;24.02;48.53
79230;BME280;68663;49.122;17.544;2023-12-28T04:15:47;99743.78;;;24.04;48.42
79230;BME280;68663;49.122;17.544;2023-12-28T04:18:12;99759.53;;;24.05;48.38
79230;BME280;68663;49.122;17.544;2023-12-28T04:20:38;99756.69;;;24.05;48.19
79230;BME280;68663;49.122;17.544;2023-12-28T04:23:03;99764.38;;;24.05;48.46
79230;BME280;68663;49.122;17.544;2023-12-28T04:25:28;99767.19;;;24.05;48.37
79230;BME280;68663;49.122;17.544;2023-12-28T04:27:54;99765.16;;;24.05;48.31
79230;BME280;68663;49.122;17.544;2023-12-28T04:30:19;99773.66;;;24.05;48.28
79230;BME280;68663;49.122;17.544;2023-12-28T04:32:45;99778.06;;;24.06;48.33
79230;BME280;68663;49.122;17.544;2023-12-28T04:35:10;99778.06;;;24.06;48.22
79230;BME280;68663;49.122;17.544;2023-12-28T04:37:36;99778.88;;;24.07;47.97
79230;BME280;68663;49.122;17.544;2023-12-28T04:40:02;99781.69;;;24.07;48.17
79230;BME280;68663;49.122;17.544;2023-12-28T04:42:28;99777.66;;;24.08;48.04
79230;BME280;68663;49.122;17.544;2023-12-28T04:44:54;99779.25;;;24.09;48.41
79230;BME280;68663;49.122;17.544;2023-12-28T04:47:19;99782.09;;;24.09;48.23
79230;BME280;68663;49.122;17.544;2023-12-28T04:49:45;99780.84;;;24.10;48.24
79230;BME280;68663;49.122;17.544;2023-12-28T04:52:10;99780.84;;;24.10;48.36
79230;BME280;68663;49.122;17.544;2023-12-28T04:54:35;99780.47;;;24.08;48.08
79230;BME280;68663;49.122;17.544;2023-12-28T04:57:01;99776.88;;;24.04;48.05
79230;BME280;68663;49.122;17.544;2023-12-28T04:59:26;99779.34;;;24.02;48.36
79230;BME280;68663;49.122;17.544;2023-12-28T05:01:52;99781.78;;;24.00;48.07
79230;BME280;68663;49.122;17.544;2023-12-28T05:04:17;99790.66;;;23.98;48.17
79230;BME280;68663;49.122;17.544;2023-12-28T05:06:43;99788.66;;;23.99;48.46
79230;BME280;68663;49.122;17.544;2023-12-28T05:09:08;99782.22;;;23.95;48.35
79230;BME280;68663;49.122;17.544;2023-12-28T05:11:34;99791.88;;;23.97;48.03
79230;BME280;68663;49.122;17.544;2023-12-28T05:13:59;99779.78;;;23.97;48.13
79230;BME280;68663;49.122;17.544;2023-12-28T05:16:24;99781.78;;;24.00;48.27
79230;BME280;68663;49.122;17.544;2023-12-28T05:18:50;99772.09;;;24.01;48.24
79230;BME280;68663;49.122;17.544;2023-12-28T05:21:15;99773.69;;;24.02;48.06
79230;BME280;68663;49.122;17.544;2023-12-28T05:23:41;99784.19;;;24.01;48.50
79230;BME280;68663;49.122;17.544;2023-12-28T05:26:06;99778.53;;;24.01;48.14
79230;BME280;68663;49.122;17.544;2023-12-28T05:28:32;99785.78;;;24.02;48.26
79230;BME280;68663;49.122;17.544;2023-12-28T05:30:58;99768.03;;;24.02;47.87
79230;BME280;68663;49.122;17.544;2023-12-28T05:33:26;99772.03;;;24.04;47.85
79230;BME280;68663;49.122;17.544;2023-12-28T05:35:52;99779.34;;;24.02;48.23
79230;BME280;68663;49.122;17.544;2023-12-28T05:38:17;99784.19;;;24.01;47.97
79230;BME280;68663;49.122;17.544;2023-12-28T05:40:43;99780.16;;;23.99;47.91
79230;BME280;68663;49.122;17.544;2023-12-28T05:43:10;99775.38;;;23.96;48.01
79230;BME280;68663;49.122;17.544;2023-12-28T05:45:35;99769.72;;;23.96;47.96
79230;BME280;68663;49.122;17.544;2023-12-28T05:48:01;99782.22;;;23.95;48.13
79230;BME280;68663;49.122;17.544;2023-12-28T05:50:26;99783.44;;;23.94;48.14
79230;BME280;68663;49.122;17.544;2023-12-28T05:52:52;99781.44;;;23.94;48.18
79230;BME280;68663;49.122;17.544;2023-12-28T05:55:17;99780.59;;;23.97;47.99
79230;BME280;68663;49.122;17.544;2023-12-28T05:57:43;99777.72;;;24.01;47.81
79230;BME280;68663;49.122;17.544;2023-12-28T06:00:09;99769.63;;;24.03;47.82
79230;BME280;68663;49.122;17.544;2023-12-28T06:02:35;99765.59;;;24.04;47.86
79230;BME280;68663;49.122;17.544;2023-12-28T06:05:00;99765.97;;;24.06;47.82
79230;BME280;68663;49.122;17.544;2023-12-28T06:07:26;99769.59;;;24.06;47.65
79230;BME280;68663;49.122;17.544;2023-12-28T06:09:51;99769.63;;;24.03;47.82
79230;BME280;68663;49.122;17.544;2023-12-28T06:12:17;99773.69;;;24.02;47.65
79230;BME280;68663;49.122;17.544;2023-12-28T06:14:42;99774.53;;;23.99;47.62
79230;BME280;68663;49.122;17.544;2023-12-28T06:17:08;99778.56;;;23.98;48.00
79230;BME280;68663;49.122;17.544;2023-12-28T06:19:33;99788.69;;;23.95;47.66
79230;BME280;68663;49.122;17.544;2023-12-28T06:21:59;99787.88;;;23.95;47.82
79230;BME280;68663;49.122;17.544;2023-12-28T06:24:24;99797.19;;;23.92;47.80
79230;BME280;68663;49.122;17.544;2023-12-28T06:26:50;99793.16;;;23.93;48.06
79230;BME280;68663;49.122;17.544;2023-12-28T06:29:16;99789.47;;;23.96;47.85
79230;BME280;68663;49.122;17.544;2023-12-28T06:31:41;99799.56;;;23.97;48.12
79230;BME280;68663;49.122;17.544;2023-12-28T06:34:07;99798.75;;;23.96;47.77
79230;BME280;68663;49.122;17.544;2023-12-28T06:36:33;99802.00;;;23.95;47.90
79230;BME280;68663;49.122;17.544;2023-12-28T06:38:59;99802.00;;;23.95;47.87
79230;BME280;68663;49.122;17.544;2023-12-28T06:41:25;99791.50;;;23.95;47.96
79230;BME280;68663;49.122;17.544;2023-12-28T06:43:51;99797.97;;;23.96;47.85
79230;BME280;68663;49.122;17.544;2023-12-28T06:46:17;99812.06;;;23.96;47.77
79230;BME280;68663;49.122;17.544;2023-12-28T06:48:42;99816.94;;;23.95;47.56
79230;BME280;68663;49.122;17.544;2023-12-28T06:51:09;99811.66;;;23.97;48.01
79230;BME280;68663;49.122;17.544;2023-12-28T06:53:35;99826.19;;;23.96;48.02
79230;BME280;68663;49.122;17.544;2023-12-28T06:56:00;99828.63;;;23.94;47.71
79230;BME280;68663;49.122;17.544;2023-12-28T06:58:26;99829.84;;;23.93;47.56
79230;BME280;68663;49.122;17.544;2023-12-28T07:00:51;99828.25;;;23.92;48.09
79230;BME280;68663;49.122;17.544;2023-12-28T07:03:16;99826.66;;;23.91;48.01
79230;BME280;68663;49.122;17.544;2023-12-28T07:05:42;99833.91;;;23.92;47.88
79230;BME280;68663;49.122;17.544;2023-12-28T07:08:07;99835.13;;;23.91;48.18
79230;BME280;68663;49.122;17.544;2023-12-28T07:10:33;99824.59;;;23.95;48.11
79230;BME280;68663;49.122;17.544;2023-12-28T07:12:58;99824.59;;;23.95;47.82
79230;BME280;68663;49.122;17.544;2023-12-28T07:15:24;99827.03;;;23.93;48.02
79230;BME280;68663;49.122;17.544;2023-12-28T07:17:50;99829.47;;;23.91;48.18
79230;BME280;68663;49.122;17.544;2023-12-28T07:20:15;99818.19;;;23.91;47.71
79230;BME280;68663;49.122;17.544;2023-12-28T07:22:41;99822.22;;;23.90;48.21
79230;BME280;68663;49.122;17.544;2023-12-28T07:25:07;99819.41;;;23.90;48.05
79230;BME280;68663;49.122;17.544;2023-12-28T07:27:34;99820.63;;;23.89;48.14
79230;BME280;68663;49.122;17.544;2023-12-28T07:30:00;99824.63;;;23.91;48.90
79230;BME280;68663;49.122;17.544;2023-12-28T07:32:26;99824.59;;;23.95;48.75
79230;BME280;68663;49.122;17.544;2023-12-28T07:34:54;99822.16;;;23.97;48.92
79230;BME280;68663;49.122;17.544;2023-12-28T07:37:20;99833.03;;;23.98;48.94
79230;BME280;68663;49.122;17.544;2023-12-28T07:39:46;99830.22;;;23.98;49.32
79230;BME280;68663;49.122;17.544;2023-12-28T07:42:12;99831.81;;;23.99;49.51
79230;BME280;68663;49.122;17.544;2023-12-28T07:44:37;99839.06;;;24.00;48.91
79230;BME280;68663;49.122;17.544;2023-12-28T07:47:03;99828.94;;;24.03;49.50
79230;BME280;68663;49.122;17.544;2023-12-28T07:49:30;99831.75;;;24.06;49.92
79230;BME280;68663;49.122;17.544;2023-12-28T07:51:55;99826.91;;;24.07;49.64
79230;BME280;68663;49.122;17.544;2023-12-28T07:54:21;99828.50;;;24.08;49.82
79230;BME280;68663;49.122;17.544;2023-12-28T07:56:46;99821.25;;;24.07;50.18
79230;BME280;68663;49.122;17.544;2023-12-28T07:59:12;99829.72;;;24.07;50.13
79230;BME280;68663;49.122;17.544;2023-12-28T08:01:37;99837.38;;;24.06;49.72
79230;BME280;68663;49.122;17.544;2023-12-28T08:04:03;99841.03;;;24.07;49.66
79230;BME280;68663;49.122;17.544;2023-12-28T08:06:29;99845.44;;;24.08;49.58
79230;BME280;68663;49.122;17.544;2023-12-28T08:08:57;99856.75;;;24.08;49.70
79230;BME280;68663;49.122;17.544;2023-12-28T08:11:24;99857.50;;;24.12;49.59
79230;BME280;68663;49.122;17.544;2023-12-28T08:13:49;99857.47;;;24.15;49.68
79230;BME280;68663;49.122;17.544;2023-12-28T08:16:15;99857.47;;;24.15;49.78
79230;BME280;68663;49.122;17.544;2023-12-28T08:18:40;99852.59;;;24.20;49.54
79230;BME280;68663;49.122;17.544;2023-12-28T08:21:06;99853.78;;;24.22;49.37
79230;BME280;68663;49.122;17.544;2023-12-28T08:23:31;99859.00;;;24.24;49.37
79230;BME280;68663;49.122;17.544;2023-12-28T08:25:57;99864.25;;;24.25;49.37
79230;BME280;68663;49.122;17.544;2023-12-28T08:28:22;99865.09;;;24.22;49.43
79230;BME280;68663;49.122;17.544;2023-12-28T08:30:48;99854.59;;;24.23;49.47
79230;BME280;68663;49.122;17.544;2023-12-28T08:33:14;99855.41;;;24.20;49.36
79230;BME280;68663;49.122;17.544;2023-12-28T08:35:39;99855.03;;;24.18;49.41
79230;BME280;68663;49.122;17.544;2023-12-28T08:38:05;99859.09;;;24.17;49.40
79230;BME280;68663;49.122;17.544;2023-12-28T08:40:31;99864.72;;;24.17;49.14
79230;BME280;68663;49.122;17.544;2023-12-28T08:42:57;99871.19;;;24.17;49.15
79230;BME280;68663;49.122;17.544;2023-12-28T08:45:22;99882.50;;;24.17;49.10
79230;BME280;68663;49.122;17.544;2023-12-28T08:47:48;99874.44;;;24.15;49.34
79230;BME280;68663;49.122;17.544;2023-12-28T08:50:14;99874.00;;;24.17;49.68
79230;BME280;68663;49.122;17.544;2023-12-28T08:52:39;99884.84;;;24.22;49.73
79230;BME280;68663;49.122;17.544;2023-12-28T08:55:05;99873.56;;;24.22;49.39
79230;BME280;68663;49.122;17.544;2023-12-28T08:57:31;99875.97;;;24.24;49.63
79230;BME280;68663;49.122;17.544;2023-12-28T08:59:57;99885.63;;;24.26;49.82
79230;BME280;68663;49.122;17.544;2023-12-28T09:02:22;99880.41;;;24.28;49.51
79230;BME280;68663;49.122;17.544;2023-12-28T09:04:48;99883.63;;;24.30;50.11
79230;BME280;68663;49.122;17.544;2023-12-28T09:07:14;99888.88;;;24.32;49.96
79230;BME280;68663;49.122;17.544;2023-12-28T09:09:40;99892.91;;;24.31;49.77
79230;BME280;68663;49.122;17.544;2023-12-28T09:12:06;99897.34;;;24.32;49.85
79230;BME280;68663;49.122;17.544;2023-12-28T09:14:32;99884.00;;;24.32;50.00
79230;BME280;68663;49.122;17.544;2023-12-28T09:16:57;99885.22;;;24.31;50.22
79230;BME280;68663;49.122;17.544;2023-12-28T09:19:22;99880.38;;;24.32;50.26
79230;BME280;68663;49.122;17.544;2023-12-28T09:21:48;99885.22;;;24.31;50.06
79230;BME280;68663;49.122;17.544;2023-12-28T09:24:13;99888.44;;;24.33;49.85
79230;BME280;68663;49.122;17.544;2023-12-28T09:26:41;99877.09;;;24.37;49.64
79230;BME280;68663;49.122;17.544;2023-12-28T09:29:06;99877.06;;;24.40;50.79
79230;BME280;68663;49.122;17.544;2023-12-28T09:31:32;99870.56;;;24.43;50.56
79230;BME280;68663;49.122;17.544;2023-12-28T09:33:57;99868.13;;;24.45;51.06
79230;BME280;68663;49.122;17.544;2023-12-28T09:36:23;99867.31;;;24.45;50.69
79230;BME280;68663;49.122;17.544;2023-12-28T09:38:48;99865.72;;;24.44;50.61
79230;BME280;68663;49.122;17.544;2023-12-28T09:41:15;99860.06;;;24.44;50.65
79230;BME280;68663;49.122;17.544;2023-12-28T09:46:10;99845.94;;;24.44;50.59
79230;BME280;68663;49.122;17.544;2023-12-28T09:48:37;99847.97;;;24.43;50.52
79230;BME280;68663;49.122;17.544;2023-12-28T09:51:04;99847.53;;;24.45;50.23
79230;BME280;68663;49.122;17.544;2023-12-28T09:53:30;99838.63;;;24.47;50.90
79230;BME280;68663;49.122;17.544;2023-12-28T09:55:55;99840.25;;;24.48;51.10
79230;BME280;68663;49.122;17.544;2023-12-28T09:58:21;99838.63;;;24.47;50.87
79230;BME280;68663;49.122;17.544;2023-12-28T10:00:49;99837.13;;;24.38;46.90
79230;BME280;68663;49.122;17.544;2023-12-28T10:03:15;99836.44;;;24.20;41.44
79230;BME280;68663;49.122;17.544;2023-12-28T10:05:41;99841.78;;;24.11;39.73
79230;BME280;68663;49.122;17.544;2023-12-28T10:08:08;99842.91;;;24.21;40.11
79230;BME280;68663;49.122;17.544;2023-12-28T10:10:34;99832.34;;;24.25;40.04
79230;BME280;68663;49.122;17.544;2023-12-28T10:13:00;99826.72;;;24.28;40.52
79230;BME280;68663;49.122;17.544;2023-12-28T10:15:25;99817.84;;;24.30;41.57
79230;BME280;68663;49.122;17.544;2023-12-28T10:17:53;99819.81;;;24.33;42.48
79230;BME280;68663;49.122;17.544;2023-12-28T10:20:19;99818.16;;;24.35;42.39
79230;BME280;68663;49.122;17.544;2023-12-28T10:22:45;99812.09;;;24.37;43.54
79230;BME280;68663;49.122;17.544;2023-12-28T10:25:11;99800.47;;;24.31;43.32
79230;BME280;68663;49.122;17.544;2023-12-28T10:27:40;99798.38;;;24.35;43.53
79230;BME280;68663;49.122;17.544;2023-12-28T10:30:08;99787.88;;;24.36;43.74
79230;BME280;68663;49.122;17.544;2023-12-28T10:32:34;99779.00;;;24.37;44.52
79230;BME280;68663;49.122;17.544;2023-12-28T10:34:59;99797.16;;;24.36;45.13
79230;BME280;68663;49.122;17.544;2023-12-28T10:37:26;99806.44;;;24.37;44.92
79230;BME280;68663;49.122;17.544;2023-12-28T10:39:53;99797.53;;;24.38;45.41
79230;BME280;68663;49.122;17.544;2023-12-28T10:42:32;99792.66;;;24.42;45.38
79230;BME280;68663;49.122;17.544;2023-12-28T10:45:04;99779.75;;;24.41;45.67
79230;BME280;68663;49.122;17.544;2023-12-28T10:47:37;99779.75;;;24.41;45.66
79230;BME280;68663;49.122;17.544;2023-12-28T10:50:04;99780.53;;;24.42;45.96
79230;BME280;68663;49.122;17.544;2023-12-28T10:52:33;99771.25;;;24.41;45.87
79230;BME280;68663;49.122;17.544;2023-12-28T10:59:04;99768.44;;;24.41;46.30
79230;BME280;68663;49.122;17.544;2023-12-28T11:01:05;99765.19;;;24.43;46.05
79230;BME280;68663;49.122;17.544;2023-12-28T11:03:34;99755.06;;;24.45;46.28
79230;BME280;68663;49.122;17.544;2023-12-28T11:06:04;99764.75;;;24.44;46.19
79230;BME280;68663;49.122;17.544;2023-12-28T11:08:32;99766.00;;;24.43;46.05
79230;BME280;68663;49.122;17.544;2023-12-28T11:10:59;99752.28;;;24.42;46.17
79230;BME280;68663;49.122;17.544;2023-12-28T11:13:28;99751.47;;;24.41;46.32
79230;BME280;68663;49.122;17.544;2023-12-28T11:15:56;99762.38;;;24.43;46.05
79230;BME280;68663;49.122;17.544;2023-12-28T11:18:22;99761.19;;;24.40;46.50
79230;BME280;68663;49.122;17.544;2023-12-28T11:20:49;99749.88;;;24.40;46.31
79230;BME280;68663;49.122;17.544;2023-12-28T11:23:16;99745.41;;;24.43;46.55
79230;BME280;68663;49.122;17.544;2023-12-28T11:25:42;99749.03;;;24.43;46.44
79230;BME280;68663;49.122;17.544;2023-12-28T11:28:11;99751.84;;;24.43;46.23
79230;BME280;68663;49.122;17.544;2023-12-28T11:30:37;99757.13;;;24.41;46.24
79230;BME280;68663;49.122;17.544;2023-12-28T11:33:04;99752.28;;;24.42;46.49
79230;BME280;68663;49.122;17.544;2023-12-28T11:35:40;99730.09;;;24.40;46.49
79230;BME280;68663;49.122;17.544;2023-12-28T11:38:11;99733.78;;;24.37;46.56
79230;BME280;68663;49.122;17.544;2023-12-28T11:40:44;99737.06;;;24.32;46.59
79230;BME280;68663;49.122;17.544;2023-12-28T11:43:18;99734.25;;;24.32;47.01
79230;BME280;68663;49.122;17.544;2023-12-28T11:45:48;99720.50;;;24.34;46.85
79230;BME280;68663;49.122;17.544;2023-12-28T11:48:24;99713.19;;;24.37;46.73
79230;BME280;68663;49.122;17.544;2023-12-28T11:50:55;99711.97;;;24.38;46.66
79230;BME280;68663;49.122;17.544;2023-12-28T11:53:22;99720.81;;;24.40;46.66
79230;BME280;68663;49.122;17.544;2023-12-28T11:55:48;99725.66;;;24.39;46.78
79230;BME280;68663;49.122;17.544;2023-12-28T11:58:16;99724.50;;;24.37;46.65
79230;BME280;68663;49.122;17.544;2023-12-28T12:00:42;99717.25;;;24.36;46.86
79230;BME280;68663;49.122;17.544;2023-12-28T12:03:10;99717.72;;;24.31;46.89
79230;BME280;68663;49.122;17.544;2023-12-28T12:05:35;99714.50;;;24.29;46.92
79230;BME280;68663;49.122;17.544;2023-12-28T12:08:01;99708.06;;;24.28;46.69
79230;BME280;68663;49.122;17.544;2023-12-28T12:10:26;99708.06;;;24.28;46.63
79230;BME280;68663;49.122;17.544;2023-12-28T12:12:52;99704.00;;;24.29;46.62
79230;BME280;68663;49.122;17.544;2023-12-28T12:15:18;99694.31;;;24.30;46.64
79230;BME280;68663;49.122;17.544;2023-12-28T12:17:44;99696.69;;;24.32;46.79
79230;BME280;68663;49.122;17.544;2023-12-28T12:20:09;99694.25;;;24.34;46.67
79230;BME280;68663;49.122;17.544;2023-12-28T12:22:35;99702.31;;;24.35;46.52
79230;BME280;68663;49.122;17.544;2023-12-28T12:25:02;99698.69;;;24.35;46.68
79230;BME280;68663;49.122;17.544;2023-12-28T12:27:31;99690.63;;;24.33;46.98
79230;BME280;68663;49.122;17.544;2023-12-28T12:29:57;99687.00;;;24.33;46.71
79230;BME280;68663;49.122;17.544;2023-12-28T12:32:22;99684.59;;;24.31;46.93
79230;BME280;68663;49.122;17.544;2023-12-28T12:34:49;99684.59;;;24.31;47.13
79230;BME280;68663;49.122;17.544;2023-12-28T12:37:15;99680.59;;;24.29;46.82
79230;BME280;68663;49.122;17.544;2023-12-28T12:39:40;99669.28;;;24.29;46.74
79230;BME280;68663;49.122;17.544;2023-12-28T12:42:06;99661.63;;;24.29;46.80
79230;BME280;68663;49.122;17.544;2023-12-28T12:44:32;99661.19;;;24.31;46.96
79230;BME280;68663;49.122;17.544;2023-12-28T12:46:58;99663.59;;;24.32;46.74
79230;BME280;68663;49.122;17.544;2023-12-28T12:49:26;99661.16;;;24.34;46.76
79230;BME280;68663;49.122;17.544;2023-12-28T12:51:52;99676.44;;;24.37;46.81
79230;BME280;68663;49.122;17.544;2023-12-28T12:54:18;99684.13;;;24.36;46.52